Terminal Aerodrome Forecast
Issued by NWS Lake Charles, LA

Home | Current Version | Previous Version | Text Only | Print | Product List | Glossary On
Versions: 1 2 3 4 5 6 7 8 9 10 11 12 13 14 15 16 17 18 19 20 21 22
137
FTUS44 KLCH 282336
TAFLCH
TAF
KLCH 282336Z 2900/2924 10008KT P6SM VCSH FEW050 BKN150
     FM290200 06007KT P6SM FEW100 BKN200
     FM290900 05006KT P6SM SCT005 BKN200
     FM291400 07012KT P6SM VCSH SCT015 BKN080 PROB30 2915/2918 4SM
      SHRA SCT015 BKN025
     FM291800 06012KT P6SM VCTS FEW015CB SCT025 BKN050 PROB30
      2918/2923 VRB12G20KT 2SM +TSRA BKN015CB OVC025=

USA.gov is the U.S. government's official web portal to all federal, state and local government web resources and services.